createdAt,value
2018-08-04T00:00:44.312Z,67.70
2018-08-04T00:03:13.075Z,68.10
2018-08-04T00:05:41.563Z,68.30
2018-08-04T00:08:10.043Z,68.50
2018-08-04T00:10:38.559Z,68.60
2018-08-04T00:13:07.043Z,68.60
2018-08-04T00:15:35.520Z,68.70
2018-08-04T00:18:04.037Z,68.80
2018-08-04T00:20:32.554Z,68.80
2018-08-04T00:23:01.364Z,68.70
2018-08-04T00:25:29.896Z,68.40
2018-08-04T00:27:58.791Z,68.20
2018-08-04T00:30:27.263Z,69.10
2018-08-04T00:32:55.778Z,69.30
2018-08-04T00:35:24.238Z,69.40
2018-08-04T00:37:52.718Z,69.70
2018-08-04T00:40:21.248Z,69.80
2018-08-04T00:42:49.732Z,69.80
2018-08-04T00:45:18.284Z,69.80
2018-08-04T00:47:46.950Z,69.80
2018-08-04T00:50:15.430Z,69.80
2018-08-04T00:52:43.931Z,69.80
2018-08-04T00:55:12.393Z,69.90
2018-08-04T00:57:40.891Z,70.00
2018-08-04T01:00:09.383Z,70.10
2018-08-04T01:02:37.927Z,70.20
2018-08-04T01:05:06.441Z,70.20
2018-08-04T01:07:34.979Z,70.30
2018-08-04T01:10:05.079Z,70.40
2018-08-04T01:12:33.988Z,70.20
2018-08-04T01:15:03.007Z,70.40
2018-08-04T01:17:31.938Z,70.70
2018-08-04T01:20:03.405Z,71.00
2018-08-04T01:25:00.784Z,70.90
2018-08-04T01:27:29.254Z,71.00
2018-08-04T01:29:58.112Z,70.80
2018-08-04T01:32:26.562Z,70.80
2018-08-04T01:34:55.060Z,70.70
2018-08-04T01:37:23.515Z,70.50
2018-08-04T01:39:52.008Z,70.20
2018-08-04T01:42:20.470Z,69.80
2018-08-04T01:44:48.979Z,70.20
2018-08-04T01:47:17.727Z,70.30
2018-08-04T01:49:46.228Z,70.40
2018-08-04T01:52:14.685Z,70.50
2018-08-04T01:54:43.198Z,70.60
2018-08-04T01:57:11.678Z,70.70
2018-08-04T01:59:40.171Z,70.60
2018-08-04T02:02:08.662Z,70.70
2018-08-04T02:04:37.205Z,70.70
2018-08-04T02:07:05.702Z,70.60
2018-08-04T02:09:34.260Z,70.90
2018-08-04T02:12:02.749Z,70.80
2018-08-04T02:14:31.212Z,70.80
2018-08-04T02:16:59.710Z,70.60
2018-08-04T02:19:28.185Z,70.90
2018-08-04T02:21:56.689Z,71.10
2018-08-04T02:24:25.152Z,71.30
2018-08-04T02:26:53.622Z,71.50
2018-08-04T02:29:22.110Z,71.70
2018-08-04T02:31:50.724Z,71.70
2018-08-04T02:34:19.179Z,72.00
2018-08-04T02:36:47.654Z,72.10
2018-08-04T02:39:16.303Z,72.30
2018-08-04T02:41:44.788Z,72.60
2018-08-04T02:44:13.268Z,72.80
2018-08-04T02:46:42.187Z,72.90
2018-08-04T02:49:10.652Z,73.00
2018-08-04T02:51:39.116Z,73.00
2018-08-04T02:54:07.643Z,73.00
2018-08-04T02:56:36.082Z,73.00
2018-08-04T02:59:04.708Z,73.10
2018-08-04T03:01:33.352Z,73.20
2018-08-04T03:04:01.829Z,73.30
2018-08-04T03:08:58.482Z,73.10
2018-08-04T03:11:27.365Z,73.30
2018-08-04T03:13:55.883Z,73.50
2018-08-04T03:16:24.327Z,73.60
2018-08-04T03:18:53.220Z,73.60
2018-08-04T03:21:21.713Z,73.70
2018-08-04T03:23:50.621Z,73.70
2018-08-04T03:26:19.103Z,74.10
2018-08-04T03:28:47.603Z,75.30
2018-08-04T03:31:16.085Z,74.10
2018-08-04T03:33:44.535Z,74.20
2018-08-04T03:36:13.008Z,74.40
2018-08-04T03:38:41.466Z,74.40
2018-08-04T03:41:10.004Z,74.60
2018-08-04T03:43:38.487Z,74.70
2018-08-04T03:46:07.586Z,75.00
2018-08-04T03:48:36.063Z,75.20
2018-08-04T03:51:04.667Z,75.00
2018-08-04T03:53:33.163Z,74.80
2018-08-04T03:56:01.672Z,74.60
2018-08-04T03:58:30.499Z,75.20
2018-08-04T04:00:58.979Z,75.40
2018-08-04T04:03:27.482Z,75.50
2018-08-04T04:05:55.995Z,75.80
2018-08-04T04:08:24.447Z,75.80
2018-08-04T04:10:52.922Z,75.60
2018-08-04T04:13:21.418Z,75.40
2018-08-04T04:15:49.979Z,75.50
2018-08-04T04:18:18.461Z,75.60
2018-08-04T04:20:47.028Z,75.30
2018-08-04T04:23:15.531Z,75.90
2018-08-04T04:25:44.067Z,76.10
2018-08-04T04:28:12.570Z,76.50
2018-08-04T04:30:41.064Z,76.70
2018-08-04T04:33:09.632Z,76.80
2018-08-04T04:35:38.106Z,76.90
2018-08-04T04:38:06.675Z,77.90
2018-08-04T04:40:35.144Z,77.20
2018-08-04T04:43:03.668Z,77.30
2018-08-04T04:45:32.262Z,77.30
2018-08-04T04:48:00.735Z,77.30
2018-08-04T04:50:29.596Z,77.40
2018-08-04T04:52:58.101Z,77.40
2018-08-04T04:55:27.240Z,77.50
2018-08-04T04:57:55.887Z,77.40
2018-08-04T05:00:24.327Z,77.20
2018-08-04T05:02:52.797Z,76.80
2018-08-04T05:05:21.237Z,77.00
2018-08-04T05:07:49.705Z,77.00
2018-08-04T05:10:18.187Z,77.00
2018-08-04T05:12:47.028Z,77.00
2018-08-04T05:15:15.481Z,77.60
2018-08-04T05:17:43.930Z,76.40
2018-08-04T05:20:12.421Z,76.40
2018-08-04T05:22:40.875Z,76.30
2018-08-04T05:25:09.378Z,76.20
2018-08-04T05:27:37.822Z,76.00
2018-08-04T05:30:07.503Z,76.00
2018-08-04T05:32:36.742Z,75.60
2018-08-04T05:35:05.326Z,75.20
2018-08-04T05:37:34.096Z,75.10
2018-08-04T05:40:02.983Z,74.90
2018-08-04T05:42:31.429Z,74.30
2018-08-04T05:44:59.964Z,73.80
2018-08-04T05:47:28.431Z,73.70
2018-08-04T05:49:57.364Z,73.50
2018-08-04T05:52:25.945Z,72.70
2018-08-04T05:54:54.506Z,72.30
2018-08-04T05:57:23.115Z,71.60
2018-08-04T05:59:51.967Z,71.60
2018-08-04T06:02:20.510Z,71.00
2018-08-04T06:04:49.334Z,70.70
2018-08-04T06:07:17.775Z,70.90
2018-08-04T06:09:46.265Z,70.00
2018-08-04T06:12:14.773Z,69.70
2018-08-04T06:14:43.296Z,69.30
2018-08-04T06:17:11.750Z,68.80
2018-08-04T06:19:40.268Z,68.70
2018-08-04T06:22:08.814Z,68.60
2018-08-04T06:24:37.456Z,68.10
2018-08-04T06:27:06.359Z,67.90
2018-08-04T06:29:34.890Z,67.40
2018-08-04T06:32:03.527Z,66.80
2018-08-04T06:34:32.683Z,66.70
2018-08-04T06:37:02.084Z,65.90
2018-08-04T06:39:31.105Z,65.90
2018-08-04T06:42:00.156Z,65.10
2018-08-04T06:44:29.345Z,65.10
2018-08-04T06:46:58.388Z,65.20
2018-08-04T06:49:27.953Z,64.60
2018-08-04T06:51:57.072Z,64.10
2018-08-04T06:54:26.126Z,63.50
2018-08-04T06:56:55.248Z,63.50
2018-08-04T06:59:24.594Z,64.20
2018-08-04T07:01:54.351Z,64.20
2018-08-04T07:04:23.407Z,63.90
2018-08-04T07:06:52.477Z,63.80
2018-08-04T07:09:21.493Z,63.50
2018-08-04T07:11:50.539Z,63.20
2018-08-04T07:14:19.581Z,62.90
2018-08-04T07:16:48.680Z,62.10
2018-08-04T07:19:17.693Z,61.70
2018-08-04T07:21:46.769Z,61.20
2018-08-04T07:24:15.786Z,60.00
2018-08-04T07:26:44.859Z,60.00
2018-08-04T07:29:13.902Z,59.50
2018-08-04T07:31:43.158Z,58.90
2018-08-04T07:34:12.219Z,57.60
2018-08-04T07:36:41.430Z,57.10
2018-08-04T07:39:11.066Z,57.40
2018-08-04T07:41:40.319Z,56.30
2018-08-04T07:46:38.299Z,56.30
2018-08-04T07:49:07.356Z,55.80
2018-08-04T07:51:36.545Z,54.40
2018-08-04T07:54:05.865Z,55.00
2018-08-04T07:56:34.936Z,54.40
2018-08-04T07:59:03.972Z,54.10
2018-08-04T08:01:33.044Z,53.50
2018-08-04T08:04:02.068Z,54.00
2018-08-04T08:06:31.117Z,53.70
2018-08-04T08:09:00.163Z,53.60
2018-08-04T08:11:29.218Z,53.40
2018-08-04T08:13:58.275Z,53.90
2018-08-04T08:16:27.392Z,53.10
2018-08-04T08:18:56.414Z,52.90
2018-08-04T08:21:25.715Z,53.00
2018-08-04T08:23:54.959Z,52.20
2018-08-04T08:26:24.316Z,51.60
2018-08-04T08:28:53.576Z,51.40
2018-08-04T08:31:22.734Z,49.40
2018-08-04T08:33:51.911Z,49.50
2018-08-04T08:36:20.985Z,48.80
2018-08-04T08:38:50.007Z,48.30
2018-08-04T08:41:19.438Z,47.80
2018-08-04T08:43:48.628Z,47.40
2018-08-04T08:46:17.669Z,47.20
2018-08-04T08:48:46.681Z,47.60
2018-08-04T08:51:15.724Z,47.30
2018-08-04T08:53:44.834Z,46.80
2018-08-04T08:56:14.403Z,45.60
2018-08-04T08:58:43.524Z,46.00
2018-08-04T09:01:14.525Z,44.90
2018-08-04T09:03:45.011Z,44.70
2018-08-04T09:06:14.291Z,45.90
2018-08-04T09:08:44.327Z,45.40
2018-08-04T09:11:13.840Z,43.90
2018-08-04T09:13:42.913Z,42.30
2018-08-04T09:16:12.096Z,41.30
2018-08-04T09:18:41.167Z,41.40
2018-08-04T09:21:10.248Z,41.60
2018-08-04T09:23:39.314Z,41.70
2018-08-04T09:26:08.675Z,43.10
2018-08-04T09:28:37.735Z,42.00
2018-08-04T09:31:06.988Z,42.80
2018-08-04T09:33:36.031Z,41.60
2018-08-04T09:36:05.071Z,41.10
2018-08-04T09:38:34.498Z,40.90
2018-08-04T09:41:03.580Z,41.90
2018-08-04T09:43:32.704Z,41.90
2018-08-04T09:46:02.771Z,40.90
2018-08-04T09:48:32.203Z,41.60
2018-08-04T09:51:01.243Z,40.90
2018-08-04T09:53:30.328Z,41.10
2018-08-04T09:55:59.350Z,40.60
2018-08-04T09:58:28.401Z,39.60
2018-08-04T10:01:02.797Z,39.30
2018-08-04T10:03:31.836Z,41.30
2018-08-04T10:06:00.900Z,41.20
2018-08-04T10:08:30.300Z,41.50
2018-08-04T10:10:59.323Z,40.90
2018-08-04T10:13:28.383Z,41.50
2018-08-04T10:15:57.446Z,42.90
2018-08-04T10:18:26.491Z,43.10
2018-08-04T10:20:55.897Z,42.70
2018-08-04T10:23:24.924Z,43.30
2018-08-04T10:25:54.018Z,43.50
2018-08-04T10:28:23.034Z,43.70
2018-08-04T10:30:52.080Z,43.50
2018-08-04T10:33:21.111Z,43.90
2018-08-04T10:35:50.224Z,44.20
2018-08-04T10:38:19.438Z,44.70
2018-08-04T10:40:48.489Z,45.60
2018-08-04T10:43:17.504Z,45.70
2018-08-04T10:45:46.550Z,45.20
2018-08-04T10:48:15.574Z,45.70
2018-08-04T10:50:44.854Z,45.60
2018-08-04T10:53:14.001Z,44.30
2018-08-04T10:55:43.255Z,42.20
2018-08-04T10:58:12.314Z,42.30
2018-08-04T11:00:41.328Z,42.80
2018-08-04T11:03:10.375Z,43.90
2018-08-04T11:05:39.456Z,42.30
2018-08-04T11:08:08.682Z,42.40
2018-08-04T11:10:37.750Z,42.40
2018-08-04T11:13:06.969Z,41.70
2018-08-04T11:15:36.050Z,42.10
2018-08-04T11:18:05.113Z,42.50
2018-08-04T11:23:03.095Z,43.10
2018-08-04T11:25:32.166Z,41.30
2018-08-04T11:28:01.170Z,41.40
2018-08-04T11:30:30.913Z,40.50
2018-08-04T11:33:00.108Z,38.40
2018-08-04T11:35:29.143Z,39.10
2018-08-04T11:37:58.143Z,39.50
2018-08-04T11:40:27.548Z,38.60
2018-08-04T11:42:56.950Z,36.30
2018-08-04T11:45:26.013Z,35.90
2018-08-04T11:47:55.230Z,35.50
2018-08-04T11:50:24.323Z,34.70
2018-08-04T11:52:53.060Z,33.20
2018-08-04T11:55:21.827Z,33.90
2018-08-04T11:57:50.571Z,34.70
2018-08-04T12:00:19.612Z,36.00
2018-08-04T12:02:48.380Z,36.00
2018-08-04T12:05:17.441Z,35.00
2018-08-04T12:07:46.147Z,34.80
2018-08-04T12:10:14.917Z,33.70
2018-08-04T12:12:44.020Z,34.40
2018-08-04T12:15:12.834Z,34.30
2018-08-04T12:17:41.551Z,35.10
2018-08-04T12:20:10.399Z,33.60
2018-08-04T12:22:39.126Z,35.00
2018-08-04T12:25:07.949Z,35.60
2018-08-04T12:27:36.950Z,35.00
2018-08-04T12:30:07.261Z,34.80
2018-08-04T12:32:36.151Z,34.50
2018-08-04T12:35:05.010Z,33.70
2018-08-04T12:37:33.813Z,32.80
2018-08-04T12:40:02.728Z,32.30
2018-08-04T12:42:31.431Z,32.90
2018-08-04T12:45:06.787Z,32.00
2018-08-04T12:47:35.483Z,32.70
2018-08-04T12:50:04.484Z,33.10
2018-08-04T12:52:33.264Z,33.50
2018-08-04T12:55:02.199Z,33.70
2018-08-04T12:57:30.902Z,32.40
2018-08-04T12:59:59.664Z,32.60
2018-08-04T13:02:28.434Z,33.80
2018-08-04T13:04:57.355Z,34.20
2018-08-04T13:07:26.396Z,35.40
2018-08-04T13:09:55.508Z,35.60
2018-08-04T13:12:24.850Z,34.60
2018-08-04T13:14:53.895Z,34.80
2018-08-04T13:17:22.910Z,34.50
2018-08-04T13:19:52.223Z,35.80
2018-08-04T13:22:21.257Z,35.20
2018-08-04T13:24:50.287Z,35.80
2018-08-04T13:27:19.285Z,35.40
2018-08-04T13:29:48.362Z,35.80
2018-08-04T13:32:17.873Z,35.00
2018-08-04T13:34:46.890Z,34.90
2018-08-04T13:37:15.905Z,34.70
2018-08-04T13:39:45.115Z,36.20
2018-08-04T13:44:42.838Z,36.40
2018-08-04T13:47:11.851Z,37.00
2018-08-04T13:49:40.900Z,36.60
2018-08-04T13:52:10.247Z,37.20
2018-08-04T13:54:39.301Z,35.60
2018-08-04T13:57:08.310Z,35.00
2018-08-04T13:59:37.755Z,40.90
2018-08-04T14:02:07.267Z,41.30
2018-08-04T14:04:36.290Z,41.20
2018-08-04T14:07:05.820Z,40.60
2018-08-04T14:09:34.891Z,42.60
2018-08-04T14:12:03.950Z,42.50
2018-08-04T14:14:33.178Z,42.70
2018-08-04T14:17:02.204Z,42.70
2018-08-04T14:19:31.238Z,43.50
2018-08-04T14:22:00.263Z,42.50
2018-08-04T14:24:29.299Z,41.50
2018-08-04T14:26:58.306Z,40.40
2018-08-04T14:29:27.367Z,39.60
2018-08-04T14:31:56.454Z,39.70
2018-08-04T14:34:25.209Z,41.00
2018-08-04T14:36:54.194Z,39.50
2018-08-04T14:39:23.227Z,41.60
2018-08-04T14:41:52.254Z,43.30
2018-08-04T14:44:21.281Z,44.10
2018-08-04T14:46:50.312Z,44.00
2018-08-04T14:49:19.360Z,44.70
2018-08-04T14:51:48.376Z,44.60
2018-08-04T14:54:17.406Z,43.10
2018-08-04T14:56:46.423Z,42.40
2018-08-04T14:59:15.460Z,42.00
2018-08-04T15:01:44.456Z,41.80
2018-08-04T15:04:13.767Z,41.80
2018-08-04T15:06:42.977Z,42.20
2018-08-04T15:09:12.725Z,42.70
2018-08-04T15:11:42.116Z,42.90
2018-08-04T15:14:11.485Z,42.90
2018-08-04T15:16:40.584Z,43.10
2018-08-04T15:19:09.614Z,44.10
2018-08-04T15:21:38.663Z,43.80
2018-08-04T15:24:07.871Z,43.70
2018-08-04T15:26:36.924Z,45.20
2018-08-04T15:29:05.960Z,45.10
2018-08-04T15:31:35.044Z,44.30
2018-08-04T15:34:04.106Z,43.90
2018-08-04T15:36:33.332Z,43.70
2018-08-04T15:39:02.474Z,42.90
2018-08-04T15:41:31.845Z,43.10
2018-08-04T15:44:00.891Z,42.70
2018-08-04T15:46:29.989Z,42.90
2018-08-04T15:48:59.002Z,43.30
2018-08-04T15:51:28.021Z,43.90
2018-08-04T15:53:57.187Z,44.40
2018-08-04T15:56:26.759Z,44.30
2018-08-04T15:58:55.942Z,44.80
2018-08-04T16:01:25.151Z,45.60
2018-08-04T16:03:54.221Z,45.30
2018-08-04T16:06:23.281Z,45.30
2018-08-04T16:08:52.330Z,45.90
2018-08-04T16:11:21.339Z,45.60
2018-08-04T16:13:50.364Z,45.40
2018-08-04T16:16:19.364Z,45.30
2018-08-04T16:18:48.447Z,46.10
2018-08-04T16:21:17.450Z,45.00
2018-08-04T16:23:46.488Z,45.00
2018-08-04T16:26:15.488Z,44.80
2018-08-04T16:28:44.509Z,44.70
2018-08-04T16:31:13.509Z,45.20
2018-08-04T16:33:42.537Z,45.10
2018-08-04T16:36:11.545Z,45.10
2018-08-04T16:38:40.592Z,45.10
2018-08-04T16:41:09.599Z,45.40
2018-08-04T16:43:38.612Z,45.20
2018-08-04T16:46:07.754Z,45.30
2018-08-04T16:48:36.776Z,45.40
2018-08-04T16:51:05.934Z,45.20
2018-08-04T16:53:34.948Z,45.40
2018-08-04T16:56:04.888Z,45.40
2018-08-04T16:58:33.878Z,45.10
2018-08-04T17:01:02.928Z,44.90
2018-08-04T17:03:31.950Z,44.90
2018-08-04T17:06:01.025Z,44.70
2018-08-04T17:08:30.044Z,44.50
2018-08-04T17:10:59.075Z,44.30
2018-08-04T17:13:28.085Z,44.80
2018-08-04T17:15:57.124Z,44.80
2018-08-04T17:18:26.185Z,45.10
2018-08-04T17:20:55.398Z,45.30
2018-08-04T17:23:24.427Z,45.70
2018-08-04T17:25:53.495Z,45.60
2018-08-04T17:28:22.670Z,45.60
2018-08-04T17:30:51.716Z,45.20
2018-08-04T17:33:20.751Z,45.10
2018-08-04T17:35:49.799Z,46.00
2018-08-04T17:38:19.578Z,46.00
2018-08-04T17:40:48.636Z,45.90
2018-08-04T17:43:17.639Z,46.30
2018-08-04T17:45:46.675Z,46.20
2018-08-04T17:48:15.679Z,46.10
2018-08-04T17:50:45.491Z,46.70
2018-08-04T17:53:14.534Z,46.80
2018-08-04T17:55:43.543Z,47.70
2018-08-04T17:58:12.551Z,47.40
2018-08-04T18:00:41.608Z,47.40
2018-08-04T18:03:11.000Z,47.70
2018-08-04T18:05:40.092Z,48.00
2018-08-04T18:08:09.176Z,48.30
2018-08-04T18:10:38.395Z,48.50
2018-08-04T18:13:07.410Z,48.50
2018-08-04T18:15:36.480Z,48.60
2018-08-04T18:18:05.612Z,48.80
2018-08-04T18:20:35.659Z,49.00
2018-08-04T18:23:05.215Z,49.50
2018-08-04T18:25:34.496Z,49.70
2018-08-04T18:28:03.951Z,49.80
2018-08-04T18:30:32.987Z,50.50
2018-08-04T18:33:01.995Z,50.60
2018-08-04T18:35:31.031Z,50.80
2018-08-04T18:38:00.074Z,50.60
2018-08-04T18:40:36.196Z,50.70
2018-08-04T18:43:05.657Z,50.90
2018-08-04T18:45:36.158Z,51.20
2018-08-04T18:48:05.952Z,51.80
2018-08-04T18:50:35.485Z,52.20
2018-08-04T18:53:04.550Z,52.70
2018-08-04T18:55:34.029Z,52.90
2018-08-04T18:58:03.308Z,52.70
2018-08-04T19:00:32.744Z,53.00
2018-08-04T19:03:02.912Z,53.10
2018-08-04T19:05:35.737Z,53.20
2018-08-04T19:08:04.960Z,53.60
2018-08-04T19:10:35.682Z,54.10
2018-08-04T19:13:08.452Z,54.30
2018-08-04T19:15:37.475Z,54.10
2018-08-04T19:20:35.589Z,54.30
2018-08-04T19:23:05.547Z,54.60
2018-08-04T19:25:35.091Z,54.60
2018-08-04T19:28:04.348Z,54.80
2018-08-04T19:30:34.198Z,54.60
2018-08-04T19:33:03.259Z,54.70
2018-08-04T19:35:33.346Z,55.00
2018-08-04T19:38:02.811Z,55.10
2018-08-04T19:40:32.654Z,55.40
2018-08-04T19:43:02.339Z,55.70
2018-08-04T19:45:31.953Z,55.90
2018-08-04T19:48:01.005Z,55.70
2018-08-04T19:50:31.739Z,56.00
2018-08-04T19:53:01.672Z,56.60
2018-08-04T19:58:00.061Z,57.10
2018-08-04T20:02:58.031Z,57.50
2018-08-04T20:05:27.068Z,57.60
2018-08-04T20:07:56.147Z,57.70
2018-08-04T20:10:25.496Z,57.80
2018-08-04T20:12:54.681Z,57.90
2018-08-04T20:15:25.154Z,58.60
2018-08-04T20:20:23.965Z,61.00
2018-08-04T20:22:53.268Z,61.90
2018-08-04T20:25:22.856Z,63.00
2018-08-04T20:27:52.378Z,64.00
2018-08-04T20:30:21.633Z,64.40
2018-08-04T20:32:50.149Z,64.60
2018-08-04T20:35:20.150Z,64.90
2018-08-04T20:37:49.188Z,64.90
2018-08-04T20:40:18.549Z,64.10
2018-08-04T20:42:47.315Z,64.90
2018-08-04T20:45:16.824Z,65.20
2018-08-04T20:47:46.688Z,65.90
2018-08-04T20:50:15.162Z,66.80
2018-08-04T20:52:43.617Z,67.10
2018-08-04T20:55:12.100Z,67.30
2018-08-04T20:57:41.481Z,68.10
2018-08-04T21:00:09.956Z,67.40
2018-08-04T21:02:38.423Z,67.60
2018-08-04T21:05:06.972Z,68.50
2018-08-04T21:07:35.444Z,69.20
2018-08-04T21:10:04.245Z,69.40
2018-08-04T21:12:33.258Z,70.00
2018-08-04T21:15:01.748Z,70.20
2018-08-04T21:17:30.565Z,70.20
2018-08-04T21:19:59.115Z,70.60
2018-08-04T21:24:55.739Z,70.00
2018-08-04T21:27:24.205Z,69.10
2018-08-04T21:29:52.678Z,68.20
2018-08-04T21:32:21.383Z,67.60
2018-08-04T21:34:49.888Z,67.30
2018-08-04T21:37:18.347Z,67.80
2018-08-04T21:39:46.845Z,68.00
2018-08-04T21:42:15.339Z,67.70
2018-08-04T21:44:43.816Z,67.70
2018-08-04T21:47:12.270Z,67.80
2018-08-04T21:49:40.750Z,68.00
2018-08-04T21:52:09.260Z,67.70
2018-08-04T21:54:37.777Z,67.70
2018-08-04T21:57:06.434Z,68.60
2018-08-04T21:59:35.350Z,68.60
2018-08-04T22:02:04.325Z,69.40
2018-08-04T22:04:32.892Z,69.80
2018-08-04T22:07:41.323Z,70.70
2018-08-04T22:10:10.833Z,71.40
2018-08-04T22:12:39.419Z,73.40
2018-08-04T22:15:09.009Z,73.90
2018-08-04T22:17:37.484Z,74.50
2018-08-04T22:20:07.217Z,75.10
2018-08-04T22:22:36.038Z,75.60
2018-08-04T22:25:05.226Z,76.40
2018-08-04T22:27:33.715Z,77.00
2018-08-04T22:30:02.239Z,77.10
2018-08-04T22:32:30.698Z,77.30
2018-08-04T22:34:59.212Z,77.50
2018-08-04T22:37:27.675Z,77.90
2018-08-04T22:39:56.144Z,78.60
2018-08-04T22:42:24.636Z,79.30
2018-08-04T22:45:03.221Z,80.00
2018-08-04T22:47:31.703Z,80.30
2018-08-04T22:50:00.180Z,80.60
2018-08-04T22:52:28.670Z,80.80
2018-08-04T22:54:57.212Z,80.70
2018-08-04T22:57:25.714Z,80.50
2018-08-04T22:59:54.508Z,80.70
2018-08-04T23:02:23.092Z,81.00
2018-08-04T23:04:51.534Z,81.00
2018-08-04T23:07:20.050Z,81.00
2018-08-04T23:09:48.510Z,80.80
2018-08-04T23:12:17.062Z,80.80
2018-08-04T23:14:45.903Z,80.90
2018-08-04T23:17:14.382Z,80.80
2018-08-04T23:22:11.036Z,80.90
2018-08-04T23:24:39.507Z,80.90
2018-08-04T23:27:08.058Z,81.10
2018-08-04T23:29:36.527Z,81.30
2018-08-04T23:32:05.027Z,81.60
2018-08-04T23:34:33.507Z,81.50
2018-08-04T23:37:02.364Z,81.30
2018-08-04T23:39:30.815Z,80.90
2018-08-04T23:41:59.320Z,81.20
2018-08-04T23:44:27.802Z,81.40
2018-08-04T23:46:56.271Z,81.70
2018-08-04T23:49:24.719Z,81.80
2018-08-04T23:51:53.237Z,81.80
2018-08-04T23:54:21.683Z,81.70
2018-08-04T23:56:50.184Z,81.60
2018-08-04T23:59:18.674Z,81.40
